Time;durP1;ratioP1;P1;durP2;ratioP2;P2;SDS_P1;SDS_P2;PMS_P1;PMS_P2;Temp;Humidity;BMP_temperature;BMP_pressure;BME280_temperature;BME280_humidity;BME280_pressure;Samples;Min_cycle;Max_cycle;Signal;HPM_P1;HPM_P2
2021/07/03 00:00:46;;;;;;;25.20;20.93;;;15.10;99.90;;;;;;5094822;28;20458;-88
2021/07/03 00:03:14;;;;;;;22.08;19.60;;;15.10;99.90;;;;;;5094493;28;20781;-91
2021/07/03 00:05:43;;;;;;;26.83;21.38;;;15.10;99.90;;;;;;5093312;28;20460;-90
2021/07/03 00:08:08;;;;;;;23.70;20.25;;;15.10;99.90;;;;;;5111399;28;20401;-90
2021/07/03 00:10:34;;;;;;;24.73;21.35;;;15.10;99.90;;;;;;5093191;28;20390;-89
2021/07/03 00:13:00;;;;;;;26.70;23.30;;;15.10;99.90;;;;;;5094186;28;20807;-91
2021/07/03 00:15:26;;;;;;;28.48;24.35;;;15.00;99.90;;;;;;5094424;28;20446;-89
2021/07/03 00:17:57;;;;;;;31.00;25.57;;;15.00;99.90;;;;;;5093916;28;20868;-89
2021/07/03 00:20:23;;;;;;;32.25;26.45;;;15.10;99.90;;;;;;5093882;28;20452;-90
2021/07/03 00:22:50;;;;;;;30.05;25.05;;;15.10;99.90;;;;;;5112470;28;20370;-92
2021/07/03 00:25:15;;;;;;;28.20;24.52;;;15.10;99.90;;;;;;5094198;28;20387;-90
2021/07/03 00:27:42;;;;;;;29.00;25.83;;;15.10;99.90;;;;;;5112311;28;20374;-89
2021/07/03 00:30:11;;;;;;;27.00;23.98;;;15.10;99.90;;;;;;5082928;28;20744;-92
2021/07/03 00:32:39;;;;;;;30.83;25.70;;;15.10;99.90;;;;;;5103056;28;20390;-89
2021/07/03 00:35:06;;;;;;;28.70;25.05;;;15.10;99.90;;;;;;5076019;28;20737;-88
2021/07/03 00:37:32;;;;;;;31.10;25.55;;;15.00;99.90;;;;;;5073397;28;20772;-89
2021/07/03 00:39:58;;;;;;;30.25;24.35;;;15.00;99.90;;;;;;5091974;28;20360;-89
2021/07/03 00:42:23;;;;;;;31.77;25.67;;;15.10;99.90;;;;;;5073947;28;20376;-88
2021/07/03 00:44:49;;;;;;;28.93;25.17;;;15.10;99.90;;;;;;5091841;28;20376;-91
2021/07/03 00:47:15;;;;;;;31.05;25.60;;;15.00;99.90;;;;;;5073529;28;20716;-92
2021/07/03 00:49:41;;;;;;;33.38;26.55;;;14.90;99.90;;;;;;5073573;28;20376;-91
2021/07/03 00:52:08;;;;;;;30.00;26.67;;;15.00;99.90;;;;;;5073408;28;20397;-91
2021/07/03 00:54:39;;;;;;;30.02;26.55;;;15.00;99.90;;;;;;5073385;28;20738;-92
2021/07/03 00:57:06;;;;;;;31.58;26.10;;;15.00;99.90;;;;;;5073379;28;20376;-90
2021/07/03 00:59:41;;;;;;;30.00;25.63;;;15.00;99.90;;;;;;5073159;28;20368;-89
2021/07/03 01:02:09;;;;;;;30.92;27.35;;;15.00;99.90;;;;;;5073375;28;20376;-91
2021/07/03 01:04:35;;;;;;;33.25;26.60;;;15.00;99.90;;;;;;5075486;28;20391;-91
2021/07/03 01:07:03;;;;;;;30.27;27.05;;;14.90;99.90;;;;;;5095371;28;20364;-90
2021/07/03 01:09:29;;;;;;;30.10;25.45;;;14.90;99.90;;;;;;5077379;28;20441;-90
2021/07/03 01:11:54;;;;;;;30.73;26.13;;;14.80;99.90;;;;;;5077642;28;20419;-89
2021/07/03 01:14:20;;;;;;;29.25;25.17;;;14.80;99.90;;;;;;5077504;28;20452;-92
2021/07/03 01:16:47;;;;;;;31.00;26.57;;;14.70;99.90;;;;;;5078048;28;20383;-90
2021/07/03 01:19:14;;;;;;;30.10;26.47;;;14.70;99.90;;;;;;5077342;28;20368;-94
2021/07/03 01:21:39;;;;;;;32.35;26.65;;;14.70;99.90;;;;;;5095529;28;20372;-91
2021/07/03 01:24:06;;;;;;;32.53;25.92;;;14.70;99.90;;;;;;5077368;28;20365;-93
2021/07/03 01:26:47;;;;;;;33.60;25.77;;;14.60;99.90;;;;;;5077372;28;20380;-91
2021/07/03 01:29:13;;;;;;;34.72;28.20;;;14.60;99.90;;;;;;5077378;28;20372;-92
2021/07/03 01:31:47;;;;;;;32.92;27.38;;;14.60;99.90;;;;;;5077446;28;20758;-93
2021/07/03 01:34:15;;;;;;;32.33;26.75;;;14.50;99.90;;;;;;5077340;28;20427;-91
2021/07/03 01:36:40;;;;;;;32.70;27.20;;;14.50;99.90;;;;;;5077162;28;20425;-90
2021/07/03 01:39:07;;;;;;;33.40;28.30;;;14.50;99.90;;;;;;5077382;28;20373;-91
2021/07/03 01:41:33;;;;;;;34.85;29.13;;;14.40;99.90;;;;;;5077353;28;20862;-92
2021/07/03 01:43:59;;;;;;;34.57;29.67;;;14.50;99.90;;;;;;5077119;28;20380;-89
2021/07/03 01:46:25;;;;;;;42.80;32.27;;;14.50;99.90;;;;;;5077404;28;20372;-92
2021/07/03 01:48:51;;;;;;;36.80;31.73;;;14.60;99.90;;;;;;5076975;28;20379;-92
2021/07/03 01:51:16;;;;;;;37.57;31.87;;;14.50;99.90;;;;;;5077016;28;20393;-92
2021/07/03 01:53:42;;;;;;;41.63;33.27;;;14.40;99.90;;;;;;5076787;28;21075;-91
2021/07/03 01:56:11;;;;;;;39.70;34.30;;;14.40;99.90;;;;;;5077904;28;20381;-92
2021/07/03 01:58:37;;;;;;;47.58;35.08;;;14.50;99.90;;;;;;5077229;28;20361;-91
2021/07/03 02:01:07;;;;;;;44.15;35.15;;;14.40;99.90;;;;;;5077865;28;20870;-92
2021/07/03 02:03:33;;;;;;;40.65;34.58;;;14.40;99.90;;;;;;5077047;28;20396;-92
2021/07/03 02:05:58;;;;;;;45.22;34.92;;;14.70;99.90;;;;;;5076145;28;20388;-92
2021/07/03 02:08:24;;;;;;;43.17;34.87;;;14.60;99.90;;;;;;5078495;28;20707;-92
2021/07/03 02:10:51;;;;;;;42.97;35.20;;;14.60;99.90;;;;;;5076658;28;20895;-92
2021/07/03 02:13:16;;;;;;;37.67;32.10;;;14.50;99.90;;;;;;5076798;28;20456;-94
2021/07/03 02:15:42;;;;;;;41.15;33.00;;;14.40;99.90;;;;;;5078539;28;20408;-91
2021/07/03 02:18:08;;;;;;;38.28;32.35;;;14.40;99.90;;;;;;5077715;28;20793;-89
2021/07/03 02:20:34;;;;;;;39.38;33.05;;;14.40;99.90;;;;;;5084348;28;20412;-92
2021/07/03 02:23:00;;;;;;;41.83;32.37;;;14.40;99.90;;;;;;5082297;28;20372;-89
2021/07/03 02:25:27;;;;;;;35.42;31.25;;;14.30;99.90;;;;;;5086126;28;20380;-90
2021/07/03 02:27:53;;;;;;;35.50;31.45;;;14.20;99.90;;;;;;5081021;28;20422;-91
2021/07/03 02:30:19;;;;;;;36.83;31.40;;;14.20;99.90;;;;;;5081737;28;20368;-89
2021/07/03 02:32:49;;;;;;;35.50;31.40;;;14.10;99.90;;;;;;5081030;28;20370;-91
2021/07/03 02:35:16;;;;;;;40.13;32.72;;;14.10;99.90;;;;;;5077085;28;20379;-90
2021/07/03 02:37:42;;;;;;;39.05;33.97;;;14.10;99.90;;;;;;5075290;28;20380;-90
2021/07/03 02:40:11;;;;;;;41.30;33.38;;;14.00;99.90;;;;;;5075501;28;20368;-89
2021/07/03 02:42:37;;;;;;;37.50;32.65;;;14.00;99.90;;;;;;5075586;28;20425;-91
2021/07/03 02:45:08;;;;;;;39.37;33.00;;;13.90;99.90;;;;;;5075609;28;20372;-91
2021/07/03 02:47:35;;;;;;;38.90;32.72;;;13.90;99.90;;;;;;5075533;28;20387;-90
2021/07/03 02:50:01;;;;;;;40.77;33.50;;;13.80;99.90;;;;;;5075221;28;20877;-90
2021/07/03 02:52:27;;;;;;;43.57;35.07;;;13.90;99.90;;;;;;5075444;28;20403;-90
2021/07/03 02:54:52;;;;;;;38.10;32.15;;;13.80;99.90;;;;;;5075462;28;20912;-89
2021/07/03 02:57:18;;;;;;;38.47;32.60;;;13.90;99.90;;;;;;5075440;28;20368;-91
2021/07/03 02:59:43;;;;;;;36.47;32.13;;;13.90;99.90;;;;;;5075397;28;20858;-90
2021/07/03 03:02:09;;;;;;;40.40;33.25;;;13.80;99.90;;;;;;5074983;28;20411;-90
2021/07/03 03:04:35;;;;;;;40.43;33.20;;;13.80;99.90;;;;;;5074967;28;20391;-90
2021/07/03 03:07:01;;;;;;;37.72;32.83;;;13.80;99.90;;;;;;5074699;28;20454;-89
2021/07/03 03:09:27;;;;;;;44.55;34.80;;;13.90;99.90;;;;;;5074654;28;20400;-90
2021/07/03 03:11:53;;;;;;;39.27;33.60;;;13.80;99.90;;;;;;5074835;28;20450;-89
2021/07/03 03:14:18;;;;;;;40.78;33.92;;;13.80;99.90;;;;;;5074766;28;20368;-90
2021/07/03 03:16:44;;;;;;;37.58;32.90;;;13.90;99.90;;;;;;5074691;28;20377;-90
2021/07/03 03:19:10;;;;;;;40.60;33.73;;;13.80;99.90;;;;;;5075002;28;20439;-90
2021/07/03 03:21:35;;;;;;;41.28;33.85;;;13.80;99.90;;;;;;5074821;28;20726;-90
2021/07/03 03:24:02;;;;;;;44.20;34.67;;;13.80;99.90;;;;;;5093066;28;20838;-90
2021/07/03 03:26:27;;;;;;;40.13;34.33;;;13.90;99.90;;;;;;5074559;28;20376;-90
2021/07/03 03:28:53;;;;;;;39.13;33.50;;;13.90;99.90;;;;;;5074814;28;20376;-90
2021/07/03 03:31:19;;;;;;;43.73;35.23;;;13.80;99.90;;;;;;5074839;28;20758;-91
2021/07/03 03:33:44;;;;;;;47.03;37.75;;;13.90;99.90;;;;;;5074691;28;20368;-89
2021/07/03 03:36:10;;;;;;;42.50;35.70;;;13.90;99.90;;;;;;5093572;28;20726;-89
2021/07/03 03:38:35;;;;;;;42.23;34.07;;;14.00;99.90;;;;;;5093394;28;20424;-90
2021/07/03 03:41:01;;;;;;;41.75;34.60;;;14.00;99.90;;;;;;5074874;28;20735;-89
2021/07/03 03:43:27;;;;;;;42.10;34.83;;;14.10;99.90;;;;;;5075297;28;20929;-89
2021/07/03 03:45:53;;;;;;;42.25;35.53;;;14.20;99.90;;;;;;5074803;28;20419;-89
2021/07/03 03:48:19;;;;;;;39.47;33.78;;;14.20;99.90;;;;;;5075988;28;20368;-91
2021/07/03 03:50:44;;;;;;;40.40;34.53;;;14.30;99.90;;;;;;5092678;28;20449;-91
2021/07/03 03:53:10;;;;;;;37.97;32.73;;;14.30;99.90;;;;;;5074630;28;20376;-90
2021/07/03 03:55:36;;;;;;;34.90;30.70;;;14.30;99.90;;;;;;5074395;28;20518;-90
2021/07/03 03:58:02;;;;;;;37.70;32.67;;;14.50;99.90;;;;;;5092328;28;20377;-90
2021/07/03 04:00:27;;;;;;;36.65;31.77;;;14.30;99.90;;;;;;5092706;28;20384;-90
2021/07/03 04:02:53;;;;;;;38.30;31.77;;;14.40;99.90;;;;;;5074961;28;20479;-90
2021/07/03 04:05:19;;;;;;;35.53;31.33;;;14.40;99.90;;;;;;5074961;28;20394;-90
2021/07/03 04:07:45;;;;;;;31.98;28.58;;;14.50;99.90;;;;;;5076408;28;20431;-91
2021/07/03 04:10:13;;;;;;;33.83;30.30;;;14.60;99.90;;;;;;5077665;28;20361;-90
2021/07/03 04:12:39;;;;;;;34.10;30.37;;;14.70;99.90;;;;;;5076590;28;20789;-91
2021/07/03 04:15:07;;;;;;;33.65;30.02;;;14.80;99.90;;;;;;5077382;28;20365;-90
2021/07/03 04:17:33;;;;;;;32.15;28.80;;;15.00;99.90;;;;;;5078816;28;20376;-90
2021/07/03 04:19:59;;;;;;;33.97;30.42;;;15.20;99.90;;;;;;5075810;28;20384;-90
2021/07/03 04:22:25;;;;;;;31.23;27.92;;;15.40;99.90;;;;;;5074986;28;20458;-89
2021/07/03 04:24:50;;;;;;;33.20;29.13;;;15.50;99.90;;;;;;5075752;28;20375;-92
2021/07/03 04:27:16;;;;;;;32.85;29.13;;;15.50;99.90;;;;;;5076611;28;20380;-91
2021/07/03 04:29:42;;;;;;;36.72;28.58;;;15.60;99.90;;;;;;5077612;28;20450;-90
2021/07/03 04:32:08;;;;;;;35.53;29.47;;;15.70;99.90;;;;;;5074958;28;20889;-91
2021/07/03 04:34:34;;;;;;;31.85;28.38;;;15.90;99.90;;;;;;5073698;28;20365;-91
2021/07/03 04:37:00;;;;;;;34.10;30.38;;;16.10;99.90;;;;;;5074396;28;20372;-91
2021/07/03 04:39:26;;;;;;;32.20;28.53;;;16.30;99.90;;;;;;5075456;28;20368;-90
2021/07/03 04:41:52;;;;;;;33.05;29.50;;;16.40;99.90;;;;;;5077660;28;20383;-90
2021/07/03 04:44:18;;;;;;;32.15;28.52;;;16.40;99.90;;;;;;5077747;28;20871;-90
2021/07/03 04:46:45;;;;;;;33.27;29.63;;;16.30;99.90;;;;;;5095354;28;20382;-89
2021/07/03 04:49:12;;;;;;;32.78;28.92;;;16.50;99.90;;;;;;5077336;28;20459;-90
2021/07/03 04:51:37;;;;;;;32.63;28.90;;;16.60;99.90;;;;;;5077244;28;20400;-90
2021/07/03 04:54:03;;;;;;;32.33;28.63;;;16.70;99.90;;;;;;5077549;28;20364;-90
2021/07/03 04:56:29;;;;;;;31.50;28.17;;;16.90;99.90;;;;;;5077052;28;20910;-89
2021/07/03 04:58:56;;;;;;;31.25;27.83;;;17.10;99.90;;;;;;5077466;28;20392;-91
2021/07/03 05:01:22;;;;;;;28.88;25.52;;;17.20;99.90;;;;;;5077683;28;20715;-91
2021/07/03 05:03:51;;;;;;;27.13;23.90;;;17.50;99.90;;;;;;5081076;28;20368;-90
2021/07/03 05:06:18;;;;;;;24.80;22.10;;;18.00;99.90;;;;;;5100429;28;20383;-89
2021/07/03 05:08:44;;;;;;;25.23;22.63;;;18.50;99.90;;;;;;5084105;28;20879;-91
2021/07/03 05:11:10;;;;;;;26.17;22.73;;;19.00;99.90;;;;;;5079293;28;20454;-93
2021/07/03 05:13:35;;;;;;;25.65;22.92;;;19.20;99.90;;;;;;5079283;28;20459;-91
2021/07/03 05:16:01;;;;;;;25.07;22.50;;;19.30;99.90;;;;;;5078107;28;20874;-90
2021/07/03 05:18:27;;;;;;;26.67;22.88;;;19.50;99.90;;;;;;5079525;28;20376;-92
2021/07/03 05:20:53;;;;;;;25.30;22.63;;;19.70;99.90;;;;;;5078655;28;20476;-90
2021/07/03 05:23:19;;;;;;;24.87;21.80;;;19.80;99.90;;;;;;5078176;28;20419;-92
2021/07/03 05:25:45;;;;;;;27.90;24.52;;;19.80;99.90;;;;;;5096384;28;20423;-90
2021/07/03 05:28:14;;;;;;;25.50;22.70;;;19.70;99.90;;;;;;5077166;28;20392;-91
2021/07/03 05:30:41;;;;;;;27.63;22.92;;;19.70;99.90;;;;;;5077039;28;20395;-89
2021/07/03 05:33:07;;;;;;;26.42;23.58;;;19.80;99.90;;;;;;5077764;28;20443;-92
2021/07/03 05:35:33;;;;;;;26.45;22.90;;;19.80;99.90;;;;;;5077004;28;20368;-90
2021/07/03 05:37:58;;;;;;;24.97;21.50;;;19.90;99.90;;;;;;5076711;28;20367;-92
2021/07/03 05:40:24;;;;;;;25.33;22.47;;;20.00;99.90;;;;;;5077345;28;20723;-89
2021/07/03 05:42:50;;;;;;;25.05;22.48;;;20.10;99.90;;;;;;5077045;28;20522;-89
2021/07/03 05:45:17;;;;;;;26.27;22.07;;;;;;;;;;5077343;28;20438;-90
2021/07/03 05:47:50;;;;;;;24.65;22.15;;;;;;;;;;5077236;28;20376;-87
2021/07/03 05:50:17;;;;;;;26.98;24.05;;;;;;;;;;5076457;28;20377;-90
2021/07/03 05:52:45;;;;;;;27.55;21.70;;;;;;;;;;5076852;28;20395;-90
2021/07/03 05:55:12;;;;;;;24.93;22.40;;;;;;;;;;5077104;28;20392;-89
2021/07/03 05:57:38;;;;;;;24.58;21.98;;;;;;;;;;5077626;28;20866;-90
2021/07/03 06:00:06;;;;;;;25.17;22.52;;;;;;;;;;5077178;28;20365;-88
2021/07/03 06:02:32;;;;;;;25.35;22.65;;;;;;;;;;5077292;28;20412;-90
2021/07/03 06:04:58;;;;;;;25.40;22.70;;;;;;;;;;5076603;28;20369;-90
2021/07/03 06:07:25;;;;;;;24.80;21.73;;;;;;;;;;5077679;28;20404;-91
2021/07/03 06:09:54;;;;;;;25.83;21.60;;;;;;;;;;5076966;28;20380;-90
2021/07/03 06:12:21;;;;;;;23.23;20.77;;;;;;;;;;5095175;28;20393;-92
2021/07/03 06:14:47;;;;;;;19.60;17.52;;;;;;;;;;5077454;28;20368;-88
2021/07/03 06:17:13;;;;;;;22.13;17.67;;;;;;;;;;5094221;28;20367;-90
2021/07/03 06:19:43;;;;;;;19.35;17.27;;;20.40;99.90;;;;;;5076648;28;20403;-88
2021/07/03 06:22:12;;;;;;;22.88;18.77;;;20.40;99.90;;;;;;5095427;28;20376;-89
2021/07/03 06:24:38;;;;;;;22.05;18.58;;;20.50;99.90;;;;;;5076803;28;20368;-90
2021/07/03 06:27:04;;;;;;;19.08;17.13;;;20.60;99.90;;;;;;5076370;28;20380;-90
2021/07/03 06:29:29;;;;;;;19.30;17.30;;;20.90;99.90;;;;;;5076218;28;20730;-89
2021/07/03 06:31:55;;;;;;;23.88;17.40;;;21.30;99.90;;;;;;5095446;28;20392;-89
2021/07/03 06:34:21;;;;;;;20.80;17.70;;;21.20;99.90;;;;;;5076549;28;20459;-90
2021/07/03 06:36:46;;;;;;;18.55;16.55;;;21.20;99.90;;;;;;5076417;28;20372;-90
2021/07/03 06:39:12;;;;;;;18.37;16.47;;;21.40;99.90;;;;;;5076726;28;20364;-89
2021/07/03 06:41:38;;;;;;;18.27;16.05;;;21.60;99.90;;;;;;5094913;28;20370;-90
2021/07/03 06:44:04;;;;;;;20.63;17.00;;;21.70;99.90;;;;;;5076915;28;20381;-89
2021/07/03 06:46:35;;;;;;;17.38;15.43;;;21.90;99.90;;;;;;5093721;28;20412;-92
2021/07/03 06:49:01;;;;;;;17.10;14.80;;;22.00;99.90;;;;;;5075602;28;20373;-91
2021/07/03 06:51:26;;;;;;;15.70;14.02;;;22.30;99.90;;;;;;5079781;28;20396;-90
2021/07/03 06:53:54;;;;;;;16.65;14.75;;;22.50;99.90;;;;;;5107232;28;20728;-90
2021/07/03 06:56:22;;;;;;;17.17;15.10;;;22.60;99.90;;;;;;5095925;28;20379;-90
2021/07/03 06:58:47;;;;;;;19.23;14.93;;;22.40;99.90;;;;;;5075572;28;20422;-88
2021/07/03 07:01:13;;;;;;;17.70;14.93;;;22.40;99.90;;;;;;5074443;28;20376;-90
2021/07/03 07:03:39;;;;;;;16.55;14.27;;;22.50;99.90;;;;;;5075022;28;20381;-88
2021/07/03 07:06:04;;;;;;;16.63;13.73;;;22.60;99.90;;;;;;5075394;28;20380;-88
2021/07/03 07:08:30;;;;;;;15.50;12.67;;;22.80;99.90;;;;;;5074954;28;20780;-89
2021/07/03 07:10:56;;;;;;;17.02;14.18;;;23.00;99.90;;;;;;5095254;28;20394;-89
2021/07/03 07:13:24;;;;;;;17.17;14.07;;;23.10;99.90;;;;;;5096158;28;20383;-87
2021/07/03 07:15:50;;;;;;;20.05;14.85;;;22.80;99.90;;;;;;5113769;28;20366;-89
2021/07/03 07:18:16;;;;;;;17.73;14.57;;;22.50;99.90;;;;;;5114258;28;20361;-87
2021/07/03 07:20:41;;;;;;;17.83;13.32;;;22.60;99.90;;;;;;5095414;28;20410;-91
2021/07/03 07:23:07;;;;;;;16.93;13.33;;;22.80;99.90;;;;;;5095886;28;20378;-86
2021/07/03 07:25:33;;;;;;;18.27;14.70;;;23.00;99.90;;;;;;5094333;28;20378;-86
2021/07/03 07:27:59;;;;;;;18.10;14.27;;;23.10;99.90;;;;;;5114283;28;20871;-90
2021/07/03 07:30:24;;;;;;;16.33;13.50;;;23.20;99.90;;;;;;5095412;28;20375;-88
2021/07/03 07:32:50;;;;;;;18.30;14.70;;;23.50;99.90;;;;;;5076129;28;20402;-89
2021/07/03 07:35:17;;;;;;;19.95;14.88;;;23.60;99.90;;;;;;5085972;28;20376;-86
2021/07/03 07:37:43;;;;;;;20.05;15.70;;;23.80;99.90;;;;;;5075104;28;20368;-86
2021/07/03 07:40:10;;;;;;;17.40;15.40;;;23.50;99.90;;;;;;5074263;28;20455;-86
2021/07/03 07:42:36;;;;;;;16.45;14.32;;;23.30;99.90;;;;;;5074611;28;20791;-88
2021/07/03 07:45:02;;;;;;;18.93;15.40;;;23.20;99.90;;;;;;5074543;28;20468;-87
2021/07/03 07:47:28;;;;;;;19.85;15.50;;;23.30;99.90;;;;;;5074609;28;20455;-88
2021/07/03 07:49:54;;;;;;;18.92;16.02;;;23.20;99.90;;;;;;5074527;28;20866;-86
2021/07/03 07:52:19;;;;;;;17.80;15.10;;;23.20;99.90;;;;;;5088148;28;20393;-89
2021/07/03 07:54:45;;;;;;;17.23;13.43;;;23.00;99.90;;;;;;5094845;28;21098;-87
2021/07/03 07:57:11;;;;;;;15.93;12.73;;;23.10;99.90;;;;;;5095626;28;20756;-90
2021/07/03 07:59:36;;;;;;;12.98;11.40;;;23.40;99.90;;;;;;5095741;28;20370;-88
2021/07/03 08:02:02;;;;;;;14.52;10.77;;;23.80;99.90;;;;;;5094516;28;20716;-89
2021/07/03 08:04:30;;;;;;;11.60;10.40;;;24.30;99.90;;;;;;5094829;28;20727;-88
2021/07/03 08:06:56;;;;;;;15.10;12.20;;;24.80;99.90;;;;;;5095006;28;20444;-89
2021/07/03 08:09:22;;;;;;;16.65;12.32;;;24.70;99.90;;;;;;5094440;28;20375;-87
2021/07/03 08:11:50;;;;;;;12.37;10.63;;;24.60;99.90;;;;;;5094956;28;20382;-89
2021/07/03 08:14:16;;;;;;;15.05;11.23;;;24.50;99.90;;;;;;5094074;28;20362;-87
2021/07/03 08:16:42;;;;;;;13.67;11.47;;;24.40;99.90;;;;;;5093785;28;20373;-89
2021/07/03 08:19:12;;;;;;;15.13;11.17;;;24.40;99.90;;;;;;5110992;28;20455;-91
2021/07/03 08:21:37;;;;;;;15.75;10.80;;;24.80;99.90;;;;;;5082576;28;20378;-91
2021/07/03 08:24:03;;;;;;;15.10;11.13;;;25.20;99.90;;;;;;5085292;28;20370;-91
2021/07/03 08:26:29;;;;;;;14.50;10.93;;;25.10;99.90;;;;;;5083713;28;20377;-89
2021/07/03 08:28:57;;;;;;;17.33;11.98;;;24.80;99.90;;;;;;5102004;28;20455;-90
2021/07/03 08:31:23;;;;;;;17.17;12.93;;;24.50;99.90;;;;;;5081406;28;20390;-88
2021/07/03 08:33:48;;;;;;;14.68;11.45;;;24.00;99.90;;;;;;5086421;28;20444;-87
2021/07/03 08:36:14;;;;;;;14.20;11.60;;;23.70;99.90;;;;;;5089717;28;20419;-89
2021/07/03 08:38:42;;;;;;;19.50;12.65;;;23.50;99.90;;;;;;5091678;28;20373;-87
2021/07/03 08:41:10;;;;;;;15.87;11.47;;;23.50;99.90;;;;;;5092531;28;20406;-90
2021/07/03 08:43:43;;;;;;;14.50;11.32;;;23.90;99.90;;;;;;5093130;28;20449;-89
2021/07/03 08:46:13;;;;;;;13.50;10.43;;;24.40;99.90;;;;;;5091718;28;20377;-89
2021/07/03 08:48:39;;;;;;;13.53;10.80;;;24.90;99.90;;;;;;5092063;28;20374;-91
2021/07/03 08:51:04;;;;;;;12.23;10.38;;;25.50;99.90;;;;;;5101304;28;21026;-90
2021/07/03 08:53:36;;;;;;;11.77;10.57;;;25.90;99.90;;;;;;5091941;28;20463;-87
2021/07/03 08:56:02;;;;;;;13.27;10.57;;;25.90;99.90;;;;;;5092609;28;20370;-90
2021/07/03 08:58:28;;;;;;;14.07;10.60;;;26.10;99.90;;;;;;5092598;28;20376;-90
2021/07/03 09:00:54;;;;;;;14.48;10.48;;;26.40;99.90;;;;;;5092185;28;20922;-89
2021/07/03 09:03:27;;;;;;;13.10;9.83;;;26.70;99.90;;;;;;5091740;28;20383;-90
2021/07/03 09:06:00;;;;;;;13.32;11.38;;;26.30;99.90;;;;;;5089649;28;20372;-90
2021/07/03 09:08:28;;;;;;;11.90;9.77;;;26.10;99.90;;;;;;5070483;28;20378;-91
2021/07/03 09:11:10;;;;;;;14.13;10.63;;;26.20;99.90;;;;;;5068957;28;20382;-89
2021/07/03 09:13:39;;;;;;;12.90;9.65;;;26.50;99.90;;;;;;5062314;28;20462;-90
2021/07/03 09:16:13;;;;;;;15.10;10.07;;;26.60;99.90;;;;;;5062260;28;20369;-90
2021/07/03 09:18:40;;;;;;;13.93;10.57;;;26.80;99.90;;;;;;5086320;28;20889;-93
2021/07/03 09:21:07;;;;;;;16.87;10.03;;;27.10;99.90;;;;;;5063772;28;20435;-87
2021/07/03 09:23:38;;;;;;;13.23;9.25;;;27.20;99.90;;;;;;5062615;28;20406;-88
2021/07/03 09:26:13;;;;;;;12.38;9.52;;;27.30;99.90;;;;;;5082615;28;20364;-85
2021/07/03 09:28:41;;;;;;;13.20;10.50;;;27.30;99.80;;;;;;5084842;28;20376;-87
2021/07/03 09:31:09;;;;;;;12.70;9.70;;;27.40;99.90;;;;;;5081946;28;20554;-88
2021/07/03 09:33:36;;;;;;;14.27;9.57;;;27.10;99.90;;;;;;5085088;28;20393;-85
2021/07/03 09:36:05;;;;;;;10.90;8.90;;;26.80;99.90;;;;;;5071407;28;20370;-86
2021/07/03 09:38:41;;;;;;;12.35;9.63;;;26.90;99.90;;;;;;5065346;28;20400;-89
2021/07/03 09:41:10;;;;;;;12.80;9.13;;;27.20;99.90;;;;;;5066207;28;20374;-91
2021/07/03 09:43:40;;;;;;;14.63;9.52;;;27.50;99.90;;;;;;5073033;28;20366;-88
2021/07/03 09:46:09;;;;;;;13.15;8.27;;;27.10;99.90;;;;;;5083344;28;20369;-88
2021/07/03 09:48:48;;;;;;;9.23;8.18;;;27.00;99.90;;;;;;5070971;28;20400;-90
2021/07/03 09:51:13;;;;;;;11.23;8.07;;;27.20;99.90;;;;;;5072095;28;20407;-87
2021/07/03 09:53:40;;;;;;;11.47;9.50;;;27.10;98.50;;;;;;5073165;28;20381;-89
2021/07/03 09:56:06;;;;;;;12.63;9.07;;;26.30;99.80;;;;;;5065395;28;20825;-90
2021/07/03 09:58:34;;;;;;;11.13;8.48;;;25.90;99.90;;;;;;5068055;28;20449;-91
2021/07/03 10:00:59;;;;;;;10.85;8.98;;;25.70;99.90;;;;;;5075723;28;20456;-90
2021/07/03 10:03:35;;;;;;;11.63;7.68;;;25.30;99.90;;;;;;5071664;28;20402;-90
2021/07/03 10:06:59;;;;;;;11.38;8.68;;;25.10;98.90;;;;;;5065777;28;20462;-89
2021/07/03 10:09:40;;;;;;;9.90;8.10;;;25.00;99.80;;;;;;5021196;28;20452;-88
2021/07/03 10:12:25;;;;;;;10.90;8.73;;;24.80;99.90;;;;;;5086778;28;20410;-91
2021/07/03 10:14:58;;;;;;;11.05;8.60;;;24.50;99.90;;;;;;5068790;28;20531;-89
2021/07/03 10:17:39;;;;;;;11.63;9.00;;;24.70;99.90;;;;;;5066203;28;20540;-90
2021/07/03 10:20:13;;;;;;;11.15;9.18;;;25.20;99.90;;;;;;5065849;28;20372;-89
2021/07/03 10:22:54;;;;;;;8.52;7.72;;;25.50;99.90;;;;;;5062308;28;20410;-90
2021/07/03 10:25:32;;;;;;;10.85;8.30;;;25.90;99.90;;;;;;5077269;28;20372;-90
2021/07/03 10:27:59;;;;;;;11.88;7.43;;;26.50;99.50;;;;;;5061979;28;20382;-91
2021/07/03 10:30:51;;;;;;;9.43;7.20;;;26.60;99.70;;;;;;5069073;28;20364;-90
2021/07/03 10:33:22;;;;;;;8.57;6.20;;;26.80;99.30;;;;;;5065751;28;20862;-89
2021/07/03 10:35:58;;;;;;;8.53;6.40;;;27.10;98.10;;;;;;5082669;28;20382;-89
2021/07/03 10:38:40;;;;;;;9.15;7.55;;;27.30;97.90;;;;;;5063337;28;20380;-88
2021/07/03 10:41:19;;;;;;;9.88;7.68;;;26.90;96.70;;;;;;5063165;28;20915;-89
2021/07/03 10:43:52;;;;;;;12.13;9.20;;;26.00;98.10;;;;;;5066161;28;20456;-89
2021/07/03 10:46:31;;;;;;;11.73;10.10;;;25.20;99.60;;;;;;5061953;28;20374;-88
2021/07/03 10:49:28;;;;;;;11.20;9.33;;;24.40;99.90;;;;;;5064288;28;20394;-88
2021/07/03 10:51:54;;;;;;;9.80;8.73;;;24.00;99.90;;;;;;5065889;28;21060;-88
2021/07/03 10:54:26;;;;;;;10.75;9.57;;;23.80;99.90;;;;;;5061195;28;20372;-89
2021/07/03 10:57:12;;;;;;;11.35;8.35;;;23.70;99.90;;;;;;5066899;28;20408;-90
2021/07/03 10:59:42;;;;;;;12.18;8.43;;;23.70;99.90;;;;;;5057646;28;20412;-89
2021/07/03 11:02:14;;;;;;;9.80;8.15;;;23.90;99.90;;;;;;5058148;28;20550;-88
2021/07/03 11:05:07;;;;;;;;;;;;;;;;;;;;;
2021/07/03 11:07:33;;;;;;;9.80;6.60;;;24.60;99.90;;;;;;5079156;28;20379;-87
2021/07/03 11:10:17;;;;;;;8.38;6.22;;;25.10;99.90;;;;;;5066948;28;20447;-91
2021/07/03 11:12:50;;;;;;;9.07;6.50;;;25.80;99.90;;;;;;5058193;28;20465;-87
2021/07/03 11:15:19;;;;;;;6.70;6.00;;;26.30;98.90;;;;;;5062150;28;20372;-89
2021/07/03 11:17:45;;;;;;;9.02;6.63;;;26.40;97.80;;;;;;5082289;28;20401;-86
2021/07/03 11:20:35;;;;;;;7.22;6.53;;;25.80;97.60;;;;;;5081822;28;20409;-88
2021/07/03 11:23:03;;;;;;;7.30;6.50;;;25.50;97.00;;;;;;5065894;28;20420;-89
2021/07/03 11:25:31;;;;;;;8.67;6.27;;;;;;;;;;5064818;28;20465;-89
2021/07/03 11:28:06;;;;;;;9.27;6.47;;;;;;;;;;5061565;28;20377;-91
2021/07/03 11:30:32;;;;;;;9.18;6.80;;;;;;;;;;5082059;28;20388;-87
2021/07/03 11:33:00;;;;;;;8.73;6.68;;;;;;;;;;5075393;28;20382;-89
2021/07/03 11:35:27;;;;;;;12.48;6.65;;;;;;;;;;5065224;28;20406;-90
2021/07/03 11:37:52;;;;;;;8.75;7.03;;;25.60;96.90;;;;;;5061747;28;20384;-85
2021/07/03 11:40:20;;;;;;;14.00;7.10;;;25.50;98.60;;;;;;5072724;28;20366;-90
2021/07/03 11:42:58;;;;;;;7.63;6.05;;;25.40;96.90;;;;;;5076934;28;20380;-89
2021/07/03 11:45:37;;;;;;;6.47;5.50;;;25.50;97.60;;;;;;5085830;28;20390;-90
2021/07/03 11:48:04;;;;;;;7.50;5.43;;;25.50;98.80;;;;;;5080912;28;20370;-87
2021/07/03 11:50:37;;;;;;;8.60;5.00;;;25.40;96.00;;;;;;5076642;28;20523;-88
2021/07/03 11:53:08;;;;;;;5.50;4.88;;;25.60;96.30;;;;;;5076890;28;20752;-88
2021/07/03 11:55:41;;;;;;;7.28;5.53;;;25.60;94.90;;;;;;5074904;28;20381;-88
2021/07/03 11:58:15;;;;;;;7.05;5.22;;;25.50;95.80;;;;;;5075516;28;20410;-87
2021/07/03 12:00:46;;;;;;;10.40;5.85;;;25.20;97.10;;;;;;5087290;28;20388;-89
2021/07/03 12:03:14;;;;;;;8.85;5.68;;;25.10;97.20;;;;;;5066051;28;20427;-89
2021/07/03 12:05:44;;;;;;;9.52;5.90;;;25.10;97.40;;;;;;5067765;28;20380;-90
2021/07/03 12:08:12;;;;;;;5.40;4.80;;;25.10;96.80;;;;;;5066802;28;20412;-89
2021/07/03 12:10:43;;;;;;;7.40;5.50;;;25.10;96.40;;;;;;5083185;28;20361;-89
2021/07/03 12:13:22;;;;;;;6.25;4.88;;;25.20;97.60;;;;;;5085254;28;20440;-87
2021/07/03 12:15:54;;;;;;;6.20;4.75;;;25.50;95.00;;;;;;5065204;28;20416;-88
2021/07/03 12:18:34;;;;;;;7.00;5.40;;;25.40;95.50;;;;;;5086889;28;20443;-88
2021/07/03 12:21:14;;;;;;;7.30;4.70;;;25.30;96.30;;;;;;5071953;28;20828;-90
2021/07/03 12:24:02;;;;;;;8.35;5.82;;;25.20;96.70;;;;;;5073549;28;20385;-89
2021/07/03 12:26:32;;;;;;;8.20;5.25;;;25.20;96.30;;;;;;5061831;28;20457;-89
2021/07/03 12:29:09;;;;;;;6.30;4.97;;;25.20;97.00;;;;;;5072699;28;20870;-87
2021/07/03 12:31:41;;;;;;;7.43;4.80;;;25.20;96.00;;;;;;5069546;28;20889;-90
2021/07/03 12:34:16;;;;;;;7.80;5.55;;;25.50;98.00;;;;;;5067867;28;20388;-89
2021/07/03 12:36:45;;;;;;;7.70;5.25;;;25.70;95.50;;;;;;5068730;28;20381;-91
2021/07/03 12:39:12;;;;;;;7.50;4.78;;;25.80;95.90;;;;;;5088209;28;20375;-84
2021/07/03 12:41:39;;;;;;;5.93;4.97;;;25.80;95.70;;;;;;5074139;28;20451;-90
2021/07/03 12:44:05;;;;;;;6.10;5.03;;;26.00;95.90;;;;;;5072117;28;20382;-89